createdAt,value
2024-02-04T00:00:57.746Z,2.00
2024-02-04T00:02:00.433Z,1.60
2024-02-04T00:03:03.207Z,1.60
2024-02-04T00:04:06.114Z,1.00
2024-02-04T00:05:08.864Z,1.27
2024-02-04T00:06:14.878Z,1.30
2024-02-04T00:07:17.309Z,1.30
2024-02-04T00:08:19.991Z,1.00
2024-02-04T00:09:22.070Z,0.80
2024-02-04T00:10:24.306Z,0.80
2024-02-04T00:11:26.409Z,0.70
2024-02-04T00:12:28.483Z,0.00
2024-02-04T00:13:30.851Z,0.00
2024-02-04T00:14:33.487Z,0.60
2024-02-04T00:15:35.824Z,0.00
2024-02-04T00:16:38.428Z,0.00
2024-02-04T00:17:41.915Z,0.00
2024-02-04T00:18:44.449Z,0.00
2024-02-04T00:19:46.973Z,0.60
2024-02-04T00:20:49.109Z,0.50
2024-02-04T00:21:51.934Z,1.00
2024-02-04T00:22:54.028Z,0.80
2024-02-04T00:23:56.748Z,0.00
2024-02-04T00:24:59.487Z,0.30
2024-02-04T00:26:01.713Z,0.70
2024-02-04T00:27:04.190Z,1.50
2024-02-04T00:28:06.885Z,1.20
2024-02-04T00:29:09.051Z,0.00
2024-02-04T00:30:11.745Z,1.50
2024-02-04T00:31:14.890Z,0.80
2024-02-04T00:32:16.820Z,0.00
2024-02-04T00:33:19.300Z,0.60
2024-02-04T00:34:21.670Z,0.50
2024-02-04T00:35:23.864Z,0.40
2024-02-04T00:36:26.103Z,0.50
2024-02-04T00:37:28.661Z,0.60
2024-02-04T00:38:30.923Z,0.80
2024-02-04T00:39:33.659Z,0.40
2024-02-04T00:40:38.768Z,0.50
2024-02-04T00:41:39.906Z,0.80
2024-02-04T00:42:41.865Z,0.44
2024-02-04T00:43:44.046Z,0.50
2024-02-04T00:44:47.313Z,0.70
2024-02-04T00:45:50.657Z,0.50
2024-02-04T00:46:53.006Z,2.50
2024-02-04T00:47:55.602Z,1.50
2024-02-04T00:48:57.946Z,0.90
2024-02-04T00:50:00.324Z,1.20
2024-02-04T00:51:02.590Z,1.00
2024-02-04T00:52:05.227Z,0.70
2024-02-04T00:53:08.457Z,1.00
2024-02-04T00:54:10.958Z,1.40
2024-02-04T00:55:13.097Z,1.10
2024-02-04T00:56:15.220Z,1.00
2024-02-04T00:57:17.565Z,1.50
2024-02-04T00:58:19.583Z,1.00
2024-02-04T00:59:21.671Z,1.30
2024-02-04T01:00:23.875Z,0.80
2024-02-04T01:01:26.257Z,1.40
2024-02-04T01:02:28.772Z,0.80
2024-02-04T01:03:32.228Z,0.50
2024-02-04T01:04:34.918Z,0.90
2024-02-04T01:05:37.191Z,0.82
2024-02-04T01:06:48.124Z,1.00
2024-02-04T01:07:44.388Z,0.50
2024-02-04T01:08:46.433Z,0.00
2024-02-04T01:09:49.047Z,0.00
2024-02-04T01:10:51.761Z,0.90
2024-02-04T01:11:54.482Z,0.10
2024-02-04T01:12:57.054Z,0.00
2024-02-04T01:13:59.357Z,0.60
2024-02-04T01:15:02.043Z,0.00
2024-02-04T01:16:06.409Z,0.09
2024-02-04T01:17:08.996Z,0.10
2024-02-04T01:18:16.750Z,0.50
2024-02-04T01:19:21.504Z,0.30
2024-02-04T01:20:27.501Z,0.50
2024-02-04T01:21:32.478Z,0.50
2024-02-04T01:22:39.195Z,0.60
2024-02-04T01:23:47.854Z,0.20
2024-02-04T01:24:51.612Z,0.70
2024-02-04T01:25:55.172Z,0.30
2024-02-04T01:27:00.189Z,0.50
2024-02-04T01:28:15.200Z,1.00
2024-02-04T01:29:20.247Z,0.80
2024-02-04T01:30:27.783Z,0.70
2024-02-04T01:31:31.123Z,0.90
2024-02-04T01:32:36.630Z,0.50
2024-02-04T01:33:41.723Z,1.00
2024-02-04T01:34:45.430Z,1.00
2024-02-04T01:35:48.270Z,0.00
2024-02-04T01:36:51.146Z,1.20
2024-02-04T01:37:56.177Z,0.70
2024-02-04T01:38:59.362Z,1.00
2024-02-04T01:40:04.951Z,0.80
2024-02-04T01:41:09.363Z,1.00
2024-02-04T01:42:12.905Z,0.73
2024-02-04T01:43:16.298Z,0.90
2024-02-04T01:44:21.399Z,0.00
2024-02-04T01:45:25.808Z,0.50
2024-02-04T01:46:30.523Z,0.60
2024-02-04T01:47:37.452Z,0.30
2024-02-04T01:48:45.521Z,0.50
2024-02-04T01:49:52.371Z,0.00
2024-02-04T01:51:00.254Z,0.00
2024-02-04T01:52:06.109Z,0.10
2024-02-04T01:53:10.024Z,0.00
2024-02-04T01:55:34.938Z,0.00
2024-02-04T01:56:37.443Z,0.00
2024-02-04T01:57:40.343Z,0.00
2024-02-04T01:58:43.449Z,0.00
2024-02-04T01:59:47.621Z,0.00
2024-02-04T02:00:51.354Z,0.00
2024-02-04T02:01:53.866Z,0.00
2024-02-04T02:02:57.236Z,0.00
2024-02-04T02:04:00.789Z,0.00
2024-02-04T02:05:03.336Z,0.00
2024-02-04T02:06:06.953Z,0.00
2024-02-04T02:07:10.851Z,0.00
2024-02-04T02:08:14.506Z,0.00
2024-02-04T02:09:17.046Z,0.00
2024-02-04T02:10:20.803Z,0.00
2024-02-04T02:11:36.277Z,0.20
2024-02-04T02:12:45.302Z,0.00
2024-02-04T02:13:53.096Z,0.00
2024-02-04T02:15:18.928Z,0.80
2024-02-04T02:16:24.171Z,0.60
2024-02-04T02:18:49.233Z,1.30
2024-02-04T02:19:58.493Z,2.70
2024-02-04T02:21:23.918Z,2.80
2024-02-04T02:22:29.884Z,2.70
2024-02-04T02:23:39.849Z,3.40
2024-02-04T02:24:43.642Z,2.50
2024-02-04T02:25:47.173Z,3.00
2024-02-04T02:26:51.405Z,1.50
2024-02-04T02:27:53.729Z,1.60
2024-02-04T02:28:56.140Z,1.20
2024-02-04T02:29:58.315Z,1.10
2024-02-04T02:31:01.746Z,0.10
2024-02-04T02:32:05.741Z,0.80
2024-02-04T02:33:08.800Z,1.60
2024-02-04T02:34:14.633Z,1.70
2024-02-04T02:35:18.623Z,2.20
2024-02-04T02:36:22.810Z,3.60
2024-02-04T02:37:48.787Z,4.00
2024-02-04T02:39:11.685Z,4.00
2024-02-04T02:40:23.540Z,4.40
2024-02-04T02:41:28.964Z,2.50
2024-02-04T02:42:33.658Z,2.80
2024-02-04T02:43:37.927Z,1.90
2024-02-04T02:44:41.760Z,2.00
2024-02-04T02:45:44.417Z,2.00
2024-02-04T02:46:48.183Z,1.73
2024-02-04T02:47:51.875Z,1.50
2024-02-04T02:48:54.316Z,3.30
2024-02-04T02:49:56.837Z,3.60
2024-02-04T02:50:59.184Z,0.90
2024-02-04T02:52:01.489Z,2.80
2024-02-04T02:53:04.513Z,1.60
2024-02-04T02:54:06.979Z,1.82
2024-02-04T02:55:09.358Z,1.10
2024-02-04T02:56:11.751Z,1.30
2024-02-04T02:57:14.074Z,1.40
2024-02-04T02:58:16.182Z,2.00
2024-02-04T02:59:18.304Z,0.40
2024-02-04T03:00:21.388Z,0.50
2024-02-04T03:01:23.796Z,1.64
2024-02-04T03:02:26.044Z,1.30
2024-02-04T03:03:28.973Z,1.00
2024-02-04T03:04:31.062Z,1.20
2024-02-04T03:05:33.441Z,1.20
2024-02-04T03:06:35.662Z,1.00
2024-02-04T03:07:38.795Z,0.90
2024-02-04T03:08:41.052Z,0.90
2024-02-04T03:09:43.644Z,0.70
2024-02-04T03:10:45.869Z,1.10
2024-02-04T03:11:47.847Z,1.00
2024-02-04T03:12:50.691Z,1.60
2024-02-04T03:13:53.078Z,1.00
2024-02-04T03:14:55.079Z,1.00
2024-02-04T03:15:57.312Z,0.20
2024-02-04T03:16:59.555Z,1.70
2024-02-04T03:18:04.494Z,0.20
2024-02-04T03:19:07.025Z,0.60
2024-02-04T03:20:11.423Z,0.00
2024-02-04T03:21:14.554Z,0.50
2024-02-04T03:22:17.394Z,0.60
2024-02-04T03:23:19.944Z,1.00
2024-02-04T03:24:22.424Z,0.80
2024-02-04T03:25:26.475Z,0.50
2024-02-04T03:26:28.883Z,1.40
2024-02-04T03:27:31.196Z,0.80
2024-02-04T03:28:33.506Z,0.90
2024-02-04T03:29:36.044Z,1.50
2024-02-04T03:30:38.389Z,1.00
2024-02-04T03:31:40.394Z,1.00
2024-02-04T03:32:42.503Z,1.00
2024-02-04T03:33:45.544Z,1.20
2024-02-04T03:34:48.229Z,1.36
2024-02-04T03:35:50.602Z,1.30
2024-02-04T03:36:52.812Z,1.60
2024-02-04T03:37:54.896Z,1.70
2024-02-04T03:38:57.778Z,1.70
2024-02-04T03:39:59.903Z,1.50
2024-02-04T03:41:02.076Z,1.00
2024-02-04T03:42:04.917Z,1.40
2024-02-04T03:43:07.452Z,1.09
2024-02-04T03:44:09.645Z,1.50
2024-02-04T03:45:12.021Z,1.50
2024-02-04T03:47:24.407Z,0.50
2024-02-04T03:49:25.594Z,1.00
2024-02-04T03:50:28.089Z,1.00
2024-02-04T03:51:30.151Z,0.50
2024-02-04T03:52:32.916Z,0.00
2024-02-04T03:53:35.053Z,1.00
2024-02-04T03:54:37.427Z,0.00
2024-02-04T03:55:41.754Z,0.00
2024-02-04T03:56:44.046Z,0.00
2024-02-04T03:57:46.581Z,0.00
2024-02-04T03:58:49.243Z,0.00
2024-02-04T03:59:51.555Z,0.10
2024-02-04T04:00:53.808Z,0.10
2024-02-04T04:01:55.954Z,0.40
2024-02-04T04:03:00.613Z,0.10
2024-02-04T04:04:03.554Z,0.00
2024-02-04T04:05:07.102Z,0.00
2024-02-04T04:07:26.040Z,0.50
2024-02-04T04:08:28.716Z,0.80
2024-02-04T04:09:30.955Z,0.50
2024-02-04T04:10:35.158Z,0.40
2024-02-04T04:11:37.459Z,1.00
2024-02-04T04:12:39.949Z,0.60
2024-02-04T04:13:42.003Z,1.00
2024-02-04T04:14:44.124Z,1.30
2024-02-04T04:15:46.302Z,1.50
2024-02-04T04:16:48.415Z,0.70
2024-02-04T04:17:50.569Z,1.10
2024-02-04T04:18:53.107Z,0.50
2024-02-04T04:19:55.248Z,0.90
2024-02-04T04:20:58.043Z,0.00
2024-02-04T04:22:00.194Z,0.60
2024-02-04T04:23:02.938Z,0.00
2024-02-04T04:24:05.373Z,0.70
2024-02-04T04:25:08.688Z,0.20
2024-02-04T04:26:12.798Z,0.60
2024-02-04T04:27:15.022Z,0.80
2024-02-04T04:28:17.648Z,0.50
2024-02-04T04:29:19.876Z,0.00
2024-02-04T04:30:22.584Z,0.70
2024-02-04T04:31:24.769Z,0.50
2024-02-04T04:32:27.455Z,0.70
2024-02-04T04:33:30.444Z,1.00
2024-02-04T04:34:32.828Z,1.10
2024-02-04T04:35:35.375Z,0.00
2024-02-04T04:36:37.603Z,0.90
2024-02-04T04:37:39.879Z,0.00
2024-02-04T04:38:42.459Z,0.00
2024-02-04T04:39:44.695Z,0.60
2024-02-04T04:40:47.103Z,1.50
2024-02-04T04:41:49.618Z,0.80
2024-02-04T04:42:51.884Z,1.00
2024-02-04T04:43:54.357Z,0.00
2024-02-04T04:44:56.620Z,0.00
2024-02-04T04:45:58.699Z,0.80
2024-02-04T04:47:01.608Z,0.20
2024-02-04T04:48:04.855Z,1.00
2024-02-04T04:49:08.645Z,1.00
2024-02-04T04:50:11.924Z,1.20
2024-02-04T04:51:14.342Z,0.60
2024-02-04T04:52:17.283Z,0.50
2024-02-04T04:53:19.450Z,0.70
2024-02-04T04:54:21.628Z,1.20
2024-02-04T04:55:25.669Z,0.80
2024-02-04T04:56:28.141Z,1.20
2024-02-04T04:57:30.226Z,1.00
2024-02-04T04:58:32.678Z,1.00
2024-02-04T04:59:34.860Z,0.40
2024-02-04T05:00:37.673Z,0.70
2024-02-04T05:01:49.022Z,0.80
2024-02-04T05:02:51.416Z,1.60
2024-02-04T05:03:54.036Z,3.30
2024-02-04T05:04:56.398Z,1.70
2024-02-04T05:05:59.341Z,2.30
2024-02-04T05:07:01.530Z,2.64
2024-02-04T05:08:04.325Z,1.40
2024-02-04T05:09:06.446Z,1.30
2024-02-04T05:10:09.443Z,1.00
2024-02-04T05:11:11.858Z,0.45
2024-02-04T05:12:14.557Z,0.80
2024-02-04T05:13:16.742Z,0.00
2024-02-04T05:14:18.957Z,1.10
2024-02-04T05:15:20.967Z,0.80
2024-02-04T05:16:23.130Z,1.11
2024-02-04T05:17:25.346Z,0.90
2024-02-04T05:18:27.548Z,0.70
2024-02-04T05:19:29.811Z,1.00
2024-02-04T05:20:32.147Z,1.00
2024-02-04T05:21:37.305Z,1.10
2024-02-04T05:22:39.351Z,1.40
2024-02-04T05:23:41.811Z,1.60
2024-02-04T05:24:43.869Z,1.20
2024-02-04T05:25:47.058Z,0.00
2024-02-04T05:26:49.298Z,1.00
2024-02-04T05:27:52.019Z,1.30
2024-02-04T05:28:54.097Z,1.60
2024-02-04T05:29:56.151Z,0.78
2024-02-04T05:30:58.791Z,0.90
2024-02-04T05:32:01.136Z,1.00
2024-02-04T05:33:03.784Z,1.00
2024-02-04T05:35:09.050Z,1.00
2024-02-04T05:36:11.357Z,0.90
2024-02-04T05:37:14.508Z,0.44
2024-02-04T05:38:17.500Z,0.40
2024-02-04T05:39:19.705Z,0.18
2024-02-04T05:40:21.948Z,1.00
2024-02-04T05:41:24.325Z,0.70
2024-02-04T05:42:26.748Z,0.30
2024-02-04T05:43:28.974Z,1.70
2024-02-04T05:44:31.825Z,1.00
2024-02-04T05:45:34.511Z,1.00
2024-02-04T05:46:37.261Z,1.20
2024-02-04T05:47:39.860Z,1.00
2024-02-04T05:48:42.202Z,0.50
2024-02-04T05:49:44.958Z,1.00
2024-02-04T05:50:47.199Z,1.00
2024-02-04T05:51:49.707Z,0.50
2024-02-04T05:52:52.492Z,0.70
2024-02-04T05:53:55.015Z,1.00
2024-02-04T05:54:59.951Z,1.50
2024-02-04T05:56:01.802Z,1.30
2024-02-04T05:57:05.301Z,1.40
2024-02-04T05:58:08.705Z,2.00
2024-02-04T05:59:10.994Z,0.91
2024-02-04T06:00:13.696Z,0.90
2024-02-04T06:01:18.122Z,1.00
2024-02-04T06:02:21.362Z,1.00
2024-02-04T06:03:23.665Z,0.90
2024-02-04T06:04:26.742Z,1.40
2024-02-04T06:05:29.177Z,1.09
2024-02-04T06:06:31.556Z,0.90
2024-02-04T06:07:35.274Z,1.20
2024-02-04T06:08:37.336Z,1.20
2024-02-04T06:09:39.639Z,1.20
2024-02-04T06:10:42.278Z,1.10
2024-02-04T06:11:47.648Z,1.20
2024-02-04T06:12:50.076Z,1.50
2024-02-04T06:13:52.292Z,1.50
2024-02-04T06:14:54.343Z,2.44
2024-02-04T06:15:56.635Z,1.67
2024-02-04T06:16:59.129Z,1.20
2024-02-04T06:18:01.364Z,1.20
2024-02-04T06:19:03.617Z,1.20
2024-02-04T06:20:06.775Z,0.90
2024-02-04T06:21:09.561Z,1.50
2024-02-04T06:22:11.968Z,1.80
2024-02-04T06:23:14.295Z,1.90
2024-02-04T06:24:16.890Z,0.00
2024-02-04T06:25:20.964Z,2.00
2024-02-04T06:26:24.576Z,3.10
2024-02-04T06:27:27.263Z,3.90
2024-02-04T06:28:29.891Z,2.70
2024-02-04T06:29:32.832Z,1.10
2024-02-04T06:30:35.095Z,2.27
2024-02-04T06:31:37.628Z,1.60
2024-02-04T06:32:39.751Z,2.00
2024-02-04T06:33:42.548Z,1.80
2024-02-04T06:34:45.858Z,0.80
2024-02-04T06:35:48.792Z,1.20
2024-02-04T06:36:51.528Z,1.20
2024-02-04T06:37:53.964Z,0.90
2024-02-04T06:38:56.320Z,1.80
2024-02-04T06:39:58.742Z,1.30
2024-02-04T06:41:01.080Z,2.00
2024-02-04T06:42:04.083Z,1.10
2024-02-04T06:43:06.404Z,1.00
2024-02-04T06:44:08.544Z,1.50
2024-02-04T06:45:11.327Z,1.50
2024-02-04T06:46:14.828Z,2.00
2024-02-04T06:47:17.971Z,1.20
2024-02-04T06:48:20.845Z,1.30
2024-02-04T06:49:23.124Z,0.50
2024-02-04T06:50:25.381Z,1.00
2024-02-04T06:51:28.155Z,1.90
2024-02-04T06:52:31.651Z,1.18
2024-02-04T06:53:34.303Z,1.00
2024-02-04T06:54:36.387Z,2.00
2024-02-04T06:55:38.924Z,2.50
2024-02-04T06:56:41.439Z,3.10
2024-02-04T06:57:43.638Z,1.60
2024-02-04T06:58:45.891Z,2.50
2024-02-04T06:59:48.089Z,1.70
2024-02-04T07:00:50.563Z,1.30
2024-02-04T07:01:52.838Z,1.30
2024-02-04T07:02:55.165Z,1.20
2024-02-04T07:03:57.384Z,2.10
2024-02-04T07:04:59.437Z,1.00
2024-02-04T07:06:01.875Z,1.10
2024-02-04T07:07:04.571Z,1.00
2024-02-04T07:08:06.969Z,1.00
2024-02-04T07:09:09.089Z,0.50
2024-02-04T07:10:14.090Z,1.50
2024-02-04T07:11:17.082Z,1.00
2024-02-04T07:12:19.574Z,1.18
2024-02-04T07:13:22.396Z,1.50
2024-02-04T07:14:26.482Z,3.00
2024-02-04T07:15:28.970Z,1.00
2024-02-04T07:16:31.254Z,1.40
2024-02-04T07:17:33.613Z,1.50
2024-02-04T07:18:35.764Z,1.80
2024-02-04T07:19:38.424Z,1.00
2024-02-04T07:20:40.586Z,1.00
2024-02-04T07:21:42.860Z,1.60
2024-02-04T07:22:45.005Z,1.00
2024-02-04T07:23:47.604Z,1.10
2024-02-04T07:24:49.620Z,1.00
2024-02-04T07:25:55.243Z,1.20
2024-02-04T07:26:57.439Z,1.00
2024-02-04T07:27:59.814Z,0.60
2024-02-04T07:29:02.058Z,1.20
2024-02-04T07:30:05.824Z,1.00
2024-02-04T07:31:08.419Z,0.20
2024-02-04T07:32:10.768Z,1.00
2024-02-04T07:33:13.022Z,1.90
2024-02-04T07:34:15.270Z,0.80
2024-02-04T07:35:18.321Z,1.70
2024-02-04T07:36:20.903Z,1.27
2024-02-04T07:37:23.614Z,1.80
2024-02-04T07:38:25.657Z,0.60
2024-02-04T07:39:28.473Z,2.10
2024-02-04T07:40:30.632Z,1.50
2024-02-04T07:41:33.058Z,0.40
2024-02-04T07:42:38.099Z,1.50
2024-02-04T07:43:40.194Z,2.80
2024-02-04T07:44:42.330Z,2.00
2024-02-04T07:45:44.890Z,1.82
2024-02-04T07:46:47.500Z,1.70
2024-02-04T07:49:02.562Z,1.50
2024-02-04T07:50:06.176Z,2.40
2024-02-04T07:51:08.462Z,1.90
2024-02-04T07:52:13.950Z,1.50
2024-02-04T07:53:16.425Z,2.70
2024-02-04T07:54:18.446Z,2.20
2024-02-04T07:55:22.321Z,1.60
2024-02-04T07:56:28.485Z,2.70
2024-02-04T13:15:09.411Z,19.10
2024-02-04T13:16:13.600Z,6.20
2024-02-04T13:17:15.977Z,4.00
2024-02-04T13:18:18.240Z,14.89
2024-02-04T13:19:20.692Z,3.70
2024-02-04T13:20:24.118Z,3.20
2024-02-04T13:21:27.518Z,1.60
2024-02-04T13:22:30.903Z,1.60
2024-02-04T13:23:33.089Z,1.90
2024-02-04T13:24:36.462Z,2.50
2024-02-04T13:25:39.267Z,2.70
2024-02-04T13:26:43.036Z,3.00
2024-02-04T13:27:45.913Z,3.70
2024-02-04T13:28:49.112Z,1.91
2024-02-04T13:29:52.045Z,2.00
2024-02-04T13:30:54.521Z,2.55
2024-02-04T13:31:57.118Z,3.40
2024-02-04T13:33:00.685Z,5.40
2024-02-04T13:34:03.437Z,2.40
2024-02-04T13:35:13.477Z,4.91
2024-02-04T13:36:14.040Z,4.00
2024-02-04T13:37:17.668Z,4.00
2024-02-04T13:38:19.907Z,3.30
2024-02-04T13:39:22.663Z,4.00
2024-02-04T13:40:25.139Z,3.00
2024-02-04T13:41:28.009Z,3.40
2024-02-04T13:42:30.753Z,2.20
2024-02-04T13:43:33.137Z,2.00
2024-02-04T13:44:35.329Z,3.10
2024-02-04T13:45:37.585Z,2.60
2024-02-04T13:46:41.440Z,2.70
2024-02-04T13:47:44.089Z,4.40
2024-02-04T13:48:46.401Z,4.20
2024-02-04T13:49:49.202Z,3.50
2024-02-04T13:50:51.593Z,1.90
2024-02-04T13:51:53.671Z,3.10
2024-02-04T13:52:56.404Z,4.90
2024-02-04T13:53:58.521Z,5.50
2024-02-04T13:55:00.896Z,5.50
2024-02-04T13:56:03.654Z,5.20
2024-02-04T13:57:06.237Z,4.82
2024-02-04T13:58:09.003Z,6.70
2024-02-04T13:59:11.902Z,5.20
2024-02-04T14:00:15.949Z,5.91
2024-02-04T14:01:18.801Z,3.80
2024-02-04T14:02:21.252Z,1.90
2024-02-04T14:03:23.758Z,3.00
2024-02-04T14:04:26.085Z,3.80
2024-02-04T14:05:29.425Z,6.90
2024-02-04T14:06:32.418Z,10.30
2024-02-04T14:07:35.789Z,8.30
2024-02-04T14:08:38.817Z,5.80
2024-02-04T14:09:42.045Z,5.55
2024-02-04T14:10:44.160Z,5.60
2024-02-04T14:11:46.311Z,4.56
2024-02-04T14:12:49.405Z,6.30
2024-02-04T14:13:51.849Z,5.20
2024-02-04T14:14:54.082Z,4.40
2024-02-04T14:15:56.901Z,4.70
2024-02-04T14:16:59.729Z,2.00
2024-02-04T14:18:02.420Z,6.50
2024-02-04T14:19:04.721Z,6.10
2024-02-04T14:20:10.664Z,4.91
2024-02-04T14:21:13.402Z,10.00
2024-02-04T14:22:16.200Z,12.90
2024-02-04T14:23:19.171Z,10.82
2024-02-04T14:24:21.716Z,11.60
2024-02-04T14:25:29.506Z,13.70
2024-02-04T14:26:32.225Z,11.20
2024-02-04T14:27:34.669Z,9.60
2024-02-04T14:28:37.099Z,7.60
2024-02-04T14:29:40.224Z,7.30
2024-02-04T14:30:42.930Z,6.20
2024-02-04T14:31:46.152Z,6.20
2024-02-04T14:32:48.357Z,8.50
2024-02-04T14:33:51.543Z,8.30
2024-02-04T14:34:54.185Z,21.55
2024-02-04T14:35:56.706Z,37.30
2024-02-04T14:36:59.411Z,35.70
2024-02-04T14:38:01.639Z,37.20
2024-02-04T14:39:03.957Z,33.30
2024-02-04T14:40:08.572Z,37.55
2024-02-04T14:41:11.964Z,42.10
2024-02-04T14:42:14.850Z,48.20
2024-02-04T14:43:18.212Z,51.82
2024-02-04T14:44:21.139Z,62.20
2024-02-04T14:45:23.568Z,64.30
2024-02-04T14:46:25.841Z,79.10
2024-02-04T14:47:29.234Z,105.40
2024-02-04T14:48:32.261Z,110.73
2024-02-04T14:49:35.966Z,61.36
2024-02-04T14:50:39.430Z,73.90
2024-02-04T14:51:42.128Z,122.80
2024-02-04T14:52:44.632Z,64.40
2024-02-04T14:53:47.511Z,48.10
2024-02-04T14:54:49.847Z,36.82
2024-02-04T14:55:53.629Z,33.30
2024-02-04T14:56:55.971Z,36.70
2024-02-04T14:57:58.723Z,25.00
2024-02-04T14:59:01.663Z,24.27
2024-02-04T15:00:05.339Z,19.09
2024-02-04T15:01:07.778Z,9.00
2024-02-04T15:02:10.434Z,6.60
2024-02-04T15:03:12.800Z,9.80
2024-02-04T15:04:15.339Z,4.00
2024-02-04T15:05:18.365Z,3.60
2024-02-04T15:06:20.976Z,8.45
2024-02-04T15:07:23.162Z,3.00
2024-02-04T15:08:26.035Z,3.50
2024-02-04T15:09:28.194Z,5.00
2024-02-04T15:10:30.963Z,5.10
2024-02-04T15:11:33.926Z,4.00
2024-02-04T15:12:37.413Z,2.91
2024-02-04T15:13:41.283Z,5.90
2024-02-04T15:14:44.071Z,7.90
2024-02-04T15:15:46.668Z,7.10
2024-02-04T15:16:51.188Z,13.10
2024-02-04T15:17:54.867Z,17.20
2024-02-04T15:18:58.230Z,18.90
2024-02-04T15:20:01.431Z,10.50
2024-02-04T15:21:04.652Z,5.40
2024-02-04T15:22:08.504Z,6.20
2024-02-04T15:23:11.091Z,4.70
2024-02-04T15:24:14.403Z,5.20
2024-02-04T15:25:17.129Z,6.50
2024-02-04T15:26:19.593Z,7.40
2024-02-04T15:27:22.943Z,8.50
2024-02-04T15:28:27.811Z,4.90
2024-02-04T15:29:31.905Z,2.60
2024-02-04T15:30:35.125Z,2.90
2024-02-04T15:31:38.071Z,4.10
2024-02-04T15:32:40.586Z,3.00
2024-02-04T15:33:43.400Z,2.70
2024-02-04T15:34:46.535Z,2.90
2024-02-04T15:35:48.930Z,3.30
2024-02-04T15:36:51.290Z,3.80
2024-02-04T15:37:53.821Z,3.50
2024-02-04T15:38:56.062Z,2.30
2024-02-04T15:39:58.810Z,4.00
2024-02-04T15:41:01.505Z,4.20
2024-02-04T15:42:07.070Z,3.20
2024-02-04T15:43:09.377Z,4.00
2024-02-04T15:44:14.482Z,5.40
2024-02-04T15:45:17.472Z,5.80
2024-02-04T15:46:20.233Z,4.64
2024-02-04T15:48:41.877Z,23.00
2024-02-04T15:49:45.822Z,13.10
2024-02-04T15:50:48.547Z,7.90
2024-02-04T15:51:51.266Z,13.10
2024-02-04T15:52:54.425Z,12.00
2024-02-04T15:53:57.128Z,13.60
2024-02-04T15:54:59.538Z,6.10
2024-02-04T15:56:05.868Z,3.80
2024-02-04T15:57:10.733Z,3.60
2024-02-04T15:58:14.768Z,2.10
2024-02-04T15:59:20.648Z,3.00
2024-02-04T16:00:23.618Z,4.10
2024-02-04T16:01:29.260Z,7.10
2024-02-04T16:02:32.438Z,9.60
2024-02-04T16:03:35.725Z,6.30
2024-02-04T16:04:38.658Z,5.50
2024-02-04T16:05:41.727Z,4.20
2024-02-04T16:06:45.082Z,4.55
2024-02-04T16:07:48.186Z,2.90
2024-02-04T16:08:51.199Z,4.00
2024-02-04T16:09:55.021Z,4.50
2024-02-04T16:10:59.990Z,3.10
2024-02-04T16:12:09.152Z,3.70
2024-02-04T16:13:11.646Z,4.30
2024-02-04T16:14:14.934Z,6.80
2024-02-04T16:15:21.357Z,5.00
2024-02-04T16:16:27.858Z,5.10
2024-02-04T16:17:34.741Z,2.00
2024-02-04T16:18:37.654Z,5.60
2024-02-04T16:19:40.842Z,5.30
2024-02-04T16:20:43.143Z,4.40
2024-02-04T16:21:45.636Z,4.00
2024-02-04T16:22:49.917Z,3.40
2024-02-04T16:23:53.174Z,3.80
2024-02-04T16:24:55.679Z,4.00
2024-02-04T16:25:57.994Z,2.90
2024-02-04T16:27:00.915Z,3.00
2024-02-04T16:28:04.106Z,3.73
2024-02-04T16:29:07.156Z,5.50
2024-02-04T16:30:10.936Z,4.40
2024-02-04T16:31:13.720Z,4.60
2024-02-04T16:32:16.219Z,7.10
2024-02-04T16:33:18.311Z,7.30
2024-02-04T16:34:20.752Z,5.00
2024-02-04T16:35:23.465Z,6.70
2024-02-04T16:36:25.781Z,5.80
2024-02-04T16:37:28.511Z,4.90
2024-02-04T16:38:31.110Z,4.00
2024-02-04T16:39:34.643Z,4.80
2024-02-04T16:40:37.342Z,4.70
2024-02-04T16:41:40.225Z,4.50
2024-02-04T16:42:43.070Z,3.36
2024-02-04T16:43:45.052Z,3.00
2024-02-04T16:44:47.400Z,5.80
2024-02-04T16:45:49.720Z,5.20
2024-02-04T16:46:51.907Z,2.00
2024-02-04T16:47:54.626Z,3.50
2024-02-04T16:48:57.388Z,3.90
2024-02-04T16:50:00.197Z,4.20
2024-02-04T16:51:02.995Z,4.30
2024-02-04T16:52:07.116Z,5.70
2024-02-04T16:53:09.536Z,5.40
2024-02-04T16:54:11.595Z,4.50
2024-02-04T16:55:14.250Z,4.00
2024-02-04T16:56:20.349Z,4.64
2024-02-04T16:57:23.489Z,6.40
2024-02-04T16:58:26.190Z,4.18
2024-02-04T16:59:28.062Z,4.00
2024-02-04T17:00:32.906Z,4.78
2024-02-04T17:01:35.217Z,4.30
2024-02-04T17:02:38.101Z,3.70
2024-02-04T17:03:40.687Z,3.20
2024-02-04T17:04:43.599Z,3.70
2024-02-04T17:05:55.703Z,4.45
2024-02-04T17:06:51.333Z,4.30
2024-02-04T17:07:53.987Z,2.70
2024-02-04T17:08:57.127Z,3.80
2024-02-04T17:10:00.284Z,5.10
2024-02-04T17:11:03.313Z,1.90
2024-02-04T17:12:06.451Z,3.50
2024-02-04T17:13:09.747Z,3.70
2024-02-04T17:14:12.602Z,2.60
2024-02-04T17:15:16.018Z,4.20
2024-02-04T17:17:43.572Z,5.40
2024-02-04T17:18:51.388Z,4.00
2024-02-04T17:20:15.197Z,4.60
2024-02-04T17:21:21.282Z,4.70
2024-02-04T17:22:26.311Z,4.20
2024-02-04T17:23:32.256Z,3.30
2024-02-04T17:24:38.546Z,4.70
2024-02-04T17:25:43.734Z,3.10
2024-02-04T17:26:51.706Z,2.60
2024-02-04T17:27:56.475Z,3.80
2024-02-04T17:28:59.662Z,4.00
2024-02-04T17:30:02.392Z,3.30
2024-02-04T17:31:05.621Z,3.80
2024-02-04T17:33:26.450Z,6.00
2024-02-04T17:34:29.176Z,5.82
2024-02-04T17:35:34.188Z,3.36
2024-02-04T17:36:37.056Z,5.09
2024-02-04T17:37:41.587Z,4.82
2024-02-04T17:38:43.871Z,4.10
2024-02-04T17:39:46.429Z,3.80
2024-02-04T17:40:49.275Z,3.30
2024-02-04T17:41:51.493Z,1.20
2024-02-04T17:42:57.500Z,4.10
2024-02-04T17:43:57.769Z,3.70
2024-02-04T17:45:01.248Z,4.00
2024-02-04T17:46:04.253Z,2.90
2024-02-04T17:47:07.455Z,2.00
2024-02-04T17:48:09.915Z,2.70
2024-02-04T17:49:12.425Z,2.90
2024-02-04T17:50:15.660Z,3.60
2024-02-04T17:51:18.498Z,2.30
2024-02-04T17:52:22.410Z,3.18
2024-02-04T17:53:24.782Z,2.70
2024-02-04T17:54:26.973Z,1.70
2024-02-04T17:55:31.148Z,2.30
2024-02-04T17:56:34.361Z,2.20
2024-02-04T17:57:36.997Z,1.70
2024-02-04T17:58:39.647Z,3.00
2024-02-04T17:59:42.481Z,2.50
2024-02-04T18:00:45.384Z,3.55
2024-02-04T18:01:48.378Z,3.09
2024-02-04T18:02:50.718Z,1.91
2024-02-04T18:03:52.933Z,2.80
2024-02-04T18:04:55.799Z,3.70
2024-02-04T18:05:59.796Z,2.82
2024-02-04T18:07:03.680Z,2.80
2024-02-04T18:08:07.260Z,4.00
2024-02-04T18:09:10.238Z,1.70
2024-02-04T18:10:15.384Z,2.60
2024-02-04T18:12:28.646Z,3.50
2024-02-04T18:13:30.962Z,3.20
2024-02-04T18:14:33.800Z,2.30
2024-02-04T18:15:36.001Z,3.40
2024-02-04T18:16:38.183Z,4.10
2024-02-04T18:17:40.696Z,2.90
2024-02-04T18:18:44.775Z,3.50
2024-02-04T18:19:47.138Z,3.60
2024-02-04T18:20:49.628Z,2.00
2024-02-04T18:21:52.377Z,2.70
2024-02-04T18:22:54.655Z,3.70
2024-02-04T18:23:57.078Z,2.90
2024-02-04T18:24:59.299Z,3.60
2024-02-04T18:26:03.587Z,2.90
2024-02-04T18:27:06.564Z,3.00
2024-02-04T18:28:09.287Z,2.73
2024-02-04T18:29:11.911Z,3.30
2024-02-04T18:30:14.792Z,2.50
2024-02-04T18:31:17.678Z,2.50
2024-02-04T18:32:20.059Z,3.80
2024-02-04T18:33:22.574Z,3.50
2024-02-04T18:34:24.903Z,2.90
2024-02-04T18:35:28.100Z,2.00
2024-02-04T18:36:31.472Z,3.10
2024-02-04T18:37:34.935Z,3.00
2024-02-04T18:38:38.283Z,4.60
2024-02-04T18:39:41.484Z,2.70
2024-02-04T18:40:43.829Z,3.20
2024-02-04T18:41:47.111Z,1.90
2024-02-04T18:42:49.437Z,3.00
2024-02-04T18:43:52.458Z,2.80
2024-02-04T18:44:55.203Z,2.50
2024-02-04T18:45:58.571Z,2.30
2024-02-04T18:47:00.833Z,1.80
2024-02-04T18:48:03.814Z,3.40
2024-02-04T18:49:06.065Z,3.10
2024-02-04T18:50:10.982Z,2.50
2024-02-04T18:51:14.640Z,3.30
2024-02-04T18:52:17.918Z,2.30
2024-02-04T18:53:20.394Z,1.90
2024-02-04T18:54:22.625Z,3.50
2024-02-04T18:55:26.949Z,3.80
2024-02-04T18:56:29.508Z,3.10
2024-02-04T18:57:32.498Z,3.70
2024-02-04T18:58:34.710Z,3.00
2024-02-04T18:59:37.227Z,3.00
2024-02-04T19:00:39.596Z,3.30
2024-02-04T19:01:42.814Z,3.20
2024-02-04T19:02:45.637Z,2.90
2024-02-04T19:03:47.922Z,4.00
2024-02-04T19:04:52.206Z,3.90
2024-02-04T19:05:54.643Z,3.50
2024-02-04T19:06:57.708Z,4.00
2024-02-04T19:08:03.325Z,1.50
2024-02-04T19:09:05.574Z,4.00
2024-02-04T19:10:08.733Z,4.70
2024-02-04T19:11:12.089Z,3.40
2024-02-04T19:12:14.622Z,3.60
2024-02-04T19:13:17.256Z,3.60
2024-02-04T19:14:19.646Z,4.10
2024-02-04T19:15:22.465Z,3.20
2024-02-04T19:16:25.441Z,3.73
2024-02-04T19:17:27.678Z,2.73
2024-02-04T19:18:32.875Z,2.30
2024-02-04T19:19:37.658Z,3.50
2024-02-04T19:20:40.046Z,3.50
2024-02-04T19:23:00.719Z,3.00
2024-02-04T19:24:04.026Z,2.80
2024-02-04T19:25:07.154Z,2.80
2024-02-04T19:26:09.660Z,3.00
2024-02-04T19:27:14.222Z,2.70
2024-02-04T19:28:17.608Z,2.40
2024-02-04T19:29:20.879Z,3.20
2024-02-04T19:30:26.124Z,3.30
2024-02-04T19:31:29.061Z,3.90
2024-02-04T19:32:31.209Z,3.40